sensor_id;sensor_type;location;lat;lon;timestamp;temperature;humidity
9845;DHT22;4961;50.782;6.080;2022-09-27T00:01:11;11.20;99.90
9845;DHT22;4961;50.782;6.080;2022-09-27T00:03:40;11.30;99.90
9845;DHT22;4961;50.782;6.080;2022-09-27T00:06:12;11.20;99.90
9845;DHT22;4961;50.782;6.080;2022-09-27T00:08:43;11.20;99.90
9845;DHT22;4961;50.782;6.080;2022-09-27T00:11:16;11.20;99.90
9845;DHT22;4961;50.782;6.080;2022-09-27T00:13:47;11.20;99.90
9845;DHT22;4961;50.782;6.080;2022-09-27T00:16:15;11.20;99.90
9845;DHT22;4961;50.782;6.080;2022-09-27T00:18:44;11.20;99.90
9845;DHT22;4961;50.782;6.080;2022-09-27T00:21:12;11.10;99.90
9845;DHT22;4961;50.782;6.080;2022-09-27T00:23:42;11.00;99.90
9845;DHT22;4961;50.782;6.080;2022-09-27T00:26:12;11.00;99.90
9845;DHT22;4961;50.782;6.080;2022-09-27T00:28:41;11.10;99.90
9845;DHT22;4961;50.782;6.080;2022-09-27T00:31:16;11.10;99.90
9845;DHT22;4961;50.782;6.080;2022-09-27T00:33:47;11.00;99.90
9845;DHT22;4961;50.782;6.080;2022-09-27T00:36:16;11.00;99.90
9845;DHT22;4961;50.782;6.080;2022-09-27T00:38:47;11.00;99.90
9845;DHT22;4961;50.782;6.080;2022-09-27T00:41:17;10.90;99.90
9845;DHT22;4961;50.782;6.080;2022-09-27T00:43:47;10.90;99.90
9845;DHT22;4961;50.782;6.080;2022-09-27T00:46:20;10.90;99.90
9845;DHT22;4961;50.782;6.080;2022-09-27T00:48:58;10.90;99.90
9845;DHT22;4961;50.782;6.080;2022-09-27T00:51:27;11.00;99.90
9845;DHT22;4961;50.782;6.080;2022-09-27T00:53:57;11.00;99.90
9845;DHT22;4961;50.782;6.080;2022-09-27T00:56:28;11.00;99.90
9845;DHT22;4961;50.782;6.080;2022-09-27T00:59:01;11.00;99.90
9845;DHT22;4961;50.782;6.080;2022-09-27T01:01:29;11.00;99.90
9845;DHT22;4961;50.782;6.080;2022-09-27T01:04:00;11.00;99.90
9845;DHT22;4961;50.782;6.080;2022-09-27T01:06:31;11.00;99.90
9845;DHT22;4961;50.782;6.080;2022-09-27T01:09:02;10.90;99.90
9845;DHT22;4961;50.782;6.080;2022-09-27T01:11:39;10.90;99.90
9845;DHT22;4961;50.782;6.080;2022-09-27T01:14:33;10.90;99.90
9845;DHT22;4961;50.782;6.080;2022-09-27T01:17:17;10.90;99.90
9845;DHT22;4961;50.782;6.080;2022-09-27T01:23:02;10.90;99.90
9845;DHT22;4961;50.782;6.080;2022-09-27T01:25:57;10.80;99.90
9845;DHT22;4961;50.782;6.080;2022-09-27T01:28:40;10.80;99.90
9845;DHT22;4961;50.782;6.080;2022-09-27T01:31:19;10.80;99.90
9845;DHT22;4961;50.782;6.080;2022-09-27T01:33:57;10.90;99.90
9845;DHT22;4961;50.782;6.080;2022-09-27T01:36:38;10.90;99.90
9845;DHT22;4961;50.782;6.080;2022-09-27T01:39:21;10.90;99.90
9845;DHT22;4961;50.782;6.080;2022-09-27T01:42:00;10.80;99.90
9845;DHT22;4961;50.782;6.080;2022-09-27T01:44:33;10.80;99.90
9845;DHT22;4961;50.782;6.080;2022-09-27T01:47:07;10.80;99.90
9845;DHT22;4961;50.782;6.080;2022-09-27T01:49:43;10.70;99.90
9845;DHT22;4961;50.782;6.080;2022-09-27T01:52:18;10.70;99.90
9845;DHT22;4961;50.782;6.080;2022-09-27T01:54:51;10.70;99.90
9845;DHT22;4961;50.782;6.080;2022-09-27T01:57:23;10.60;99.90
9845;DHT22;4961;50.782;6.080;2022-09-27T01:59:57;10.60;99.90
9845;DHT22;4961;50.782;6.080;2022-09-27T02:02:30;10.60;99.90
9845;DHT22;4961;50.782;6.080;2022-09-27T02:05:01;10.60;99.90
9845;DHT22;4961;50.782;6.080;2022-09-27T02:07:36;10.60;99.90
9845;DHT22;4961;50.782;6.080;2022-09-27T02:10:09;10.60;99.90
9845;DHT22;4961;50.782;6.080;2022-09-27T02:12:48;10.60;99.90
9845;DHT22;4961;50.782;6.080;2022-09-27T02:15:19;10.60;99.90
9845;DHT22;4961;50.782;6.080;2022-09-27T02:17:55;10.70;99.90
9845;DHT22;4961;50.782;6.080;2022-09-27T02:20:29;10.60;99.90
9845;DHT22;4961;50.782;6.080;2022-09-27T02:23:06;10.50;99.90
9845;DHT22;4961;50.782;6.080;2022-09-27T02:25:42;10.60;99.90
9845;DHT22;4961;50.782;6.080;2022-09-27T02:28:19;10.60;99.90
9845;DHT22;4961;50.782;6.080;2022-09-27T02:30:50;10.60;99.90
9845;DHT22;4961;50.782;6.080;2022-09-27T02:33:22;10.60;99.90
9845;DHT22;4961;50.782;6.080;2022-09-27T02:35:51;10.70;99.90
9845;DHT22;4961;50.782;6.080;2022-09-27T02:38:20;10.60;99.90
9845;DHT22;4961;50.782;6.080;2022-09-27T02:40:48;10.60;99.90
9845;DHT22;4961;50.782;6.080;2022-09-27T02:43:26;10.50;99.90
9845;DHT22;4961;50.782;6.080;2022-09-27T02:46:06;10.50;99.90
9845;DHT22;4961;50.782;6.080;2022-09-27T02:48:50;10.60;99.90
9845;DHT22;4961;50.782;6.080;2022-09-27T02:51:37;10.50;99.90
9845;DHT22;4961;50.782;6.080;2022-09-27T02:54:15;10.60;99.90
9845;DHT22;4961;50.782;6.080;2022-09-27T02:56:52;10.50;99.90
9845;DHT22;4961;50.782;6.080;2022-09-27T02:59:28;10.60;99.90
9845;DHT22;4961;50.782;6.080;2022-09-27T03:02:05;10.50;99.90
9845;DHT22;4961;50.782;6.080;2022-09-27T03:04:43;10.50;99.90
9845;DHT22;4961;50.782;6.080;2022-09-27T03:07:13;10.50;99.90
9845;DHT22;4961;50.782;6.080;2022-09-27T03:09:45;10.50;99.90
9845;DHT22;4961;50.782;6.080;2022-09-27T03:12:14;10.50;99.90
9845;DHT22;4961;50.782;6.080;2022-09-27T03:14:47;10.40;99.90
9845;DHT22;4961;50.782;6.080;2022-09-27T03:17:16;10.30;99.90
9845;DHT22;4961;50.782;6.080;2022-09-27T03:19:45;10.30;99.90
9845;DHT22;4961;50.782;6.080;2022-09-27T03:22:14;10.20;99.90
9845;DHT22;4961;50.782;6.080;2022-09-27T03:24:42;10.20;99.90
9845;DHT22;4961;50.782;6.080;2022-09-27T03:27:11;10.20;99.90
9845;DHT22;4961;50.782;6.080;2022-09-27T03:29:39;10.20;99.90
9845;DHT22;4961;50.782;6.080;2022-09-27T03:32:07;10.20;99.90
9845;DHT22;4961;50.782;6.080;2022-09-27T03:34:36;10.20;99.90
9845;DHT22;4961;50.782;6.080;2022-09-27T03:37:06;10.20;99.90
9845;DHT22;4961;50.782;6.080;2022-09-27T03:39:34;10.20;99.90
9845;DHT22;4961;50.782;6.080;2022-09-27T03:42:02;10.20;99.90
9845;DHT22;4961;50.782;6.080;2022-09-27T03:44:30;10.10;99.90
9845;DHT22;4961;50.782;6.080;2022-09-27T03:46:59;10.10;99.90
9845;DHT22;4961;50.782;6.080;2022-09-27T03:49:27;10.20;99.90
9845;DHT22;4961;50.782;6.080;2022-09-27T03:51:56;10.20;99.90
9845;DHT22;4961;50.782;6.080;2022-09-27T03:54:25;10.30;99.90
9845;DHT22;4961;50.782;6.080;2022-09-27T03:56:53;10.30;99.90
9845;DHT22;4961;50.782;6.080;2022-09-27T03:59:22;10.40;99.90
9845;DHT22;4961;50.782;6.080;2022-09-27T04:01:50;10.40;99.90
9845;DHT22;4961;50.782;6.080;2022-09-27T04:04:18;10.40;99.90
9845;DHT22;4961;50.782;6.080;2022-09-27T04:06:46;10.40;99.90
9845;DHT22;4961;50.782;6.080;2022-09-27T04:09:15;10.30;99.90
9845;DHT22;4961;50.782;6.080;2022-09-27T04:11:45;10.40;99.90
9845;DHT22;4961;50.782;6.080;2022-09-27T04:14:15;10.40;99.90
9845;DHT22;4961;50.782;6.080;2022-09-27T04:16:43;10.30;99.90
9845;DHT22;4961;50.782;6.080;2022-09-27T04:19:12;10.30;99.90
9845;DHT22;4961;50.782;6.080;2022-09-27T04:21:40;10.30;99.90
9845;DHT22;4961;50.782;6.080;2022-09-27T04:24:08;10.30;99.90
9845;DHT22;4961;50.782;6.080;2022-09-27T04:26:38;10.30;99.90
9845;DHT22;4961;50.782;6.080;2022-09-27T04:29:08;10.30;99.90
9845;DHT22;4961;50.782;6.080;2022-09-27T04:31:36;10.20;99.90
9845;DHT22;4961;50.782;6.080;2022-09-27T04:34:04;10.20;99.90
9845;DHT22;4961;50.782;6.080;2022-09-27T04:36:33;10.20;99.90
9845;DHT22;4961;50.782;6.080;2022-09-27T04:39:01;10.10;99.90
9845;DHT22;4961;50.782;6.080;2022-09-27T04:41:30;10.10;99.90
9845;DHT22;4961;50.782;6.080;2022-09-27T04:43:59;10.10;99.90
9845;DHT22;4961;50.782;6.080;2022-09-27T04:46:29;10.10;99.90
9845;DHT22;4961;50.782;6.080;2022-09-27T04:48:58;10.20;99.90
9845;DHT22;4961;50.782;6.080;2022-09-27T04:51:27;10.20;99.90
9845;DHT22;4961;50.782;6.080;2022-09-27T04:53:55;10.20;99.90
9845;DHT22;4961;50.782;6.080;2022-09-27T04:56:24;10.20;99.90
9845;DHT22;4961;50.782;6.080;2022-09-27T04:58:52;10.20;99.90
9845;DHT22;4961;50.782;6.080;2022-09-27T05:01:20;10.20;99.90
9845;DHT22;4961;50.782;6.080;2022-09-27T05:03:50;10.10;99.90
9845;DHT22;4961;50.782;6.080;2022-09-27T05:06:19;10.20;99.90
9845;DHT22;4961;50.782;6.080;2022-09-27T05:08:47;10.00;99.90
9845;DHT22;4961;50.782;6.080;2022-09-27T05:11:15;10.00;99.90
9845;DHT22;4961;50.782;6.080;2022-09-27T05:13:43;10.00;99.90
9845;DHT22;4961;50.782;6.080;2022-09-27T05:16:14;9.90;99.90
9845;DHT22;4961;50.782;6.080;2022-09-27T05:18:43;9.90;99.90
9845;DHT22;4961;50.782;6.080;2022-09-27T05:21:12;10.00;99.90
9845;DHT22;4961;50.782;6.080;2022-09-27T05:23:40;9.90;99.90
9845;DHT22;4961;50.782;6.080;2022-09-27T05:26:13;10.00;99.90
9845;DHT22;4961;50.782;6.080;2022-09-27T05:28:42;9.90;99.90
9845;DHT22;4961;50.782;6.080;2022-09-27T05:31:13;9.90;99.90
9845;DHT22;4961;50.782;6.080;2022-09-27T05:33:44;9.90;99.90
9845;DHT22;4961;50.782;6.080;2022-09-27T05:36:14;9.90;99.90
9845;DHT22;4961;50.782;6.080;2022-09-27T05:38:42;9.90;99.90
9845;DHT22;4961;50.782;6.080;2022-09-27T05:41:10;10.00;99.90
9845;DHT22;4961;50.782;6.080;2022-09-27T05:43:39;9.90;99.90
9845;DHT22;4961;50.782;6.080;2022-09-27T05:46:07;9.90;99.90
9845;DHT22;4961;50.782;6.080;2022-09-27T05:48:35;9.90;99.90
9845;DHT22;4961;50.782;6.080;2022-09-27T05:51:04;9.80;99.90
9845;DHT22;4961;50.782;6.080;2022-09-27T05:53:34;9.80;99.90
9845;DHT22;4961;50.782;6.080;2022-09-27T05:56:02;9.90;99.90
9845;DHT22;4961;50.782;6.080;2022-09-27T05:58:31;9.90;99.90
9845;DHT22;4961;50.782;6.080;2022-09-27T06:01:01;10.00;99.90
9845;DHT22;4961;50.782;6.080;2022-09-27T06:03:33;10.00;99.90
9845;DHT22;4961;50.782;6.080;2022-09-27T06:06:03;10.00;99.90
9845;DHT22;4961;50.782;6.080;2022-09-27T06:08:34;9.90;99.90
9845;DHT22;4961;50.782;6.080;2022-09-27T06:11:04;9.90;99.90
9845;DHT22;4961;50.782;6.080;2022-09-27T06:13:34;9.90;99.90
9845;DHT22;4961;50.782;6.080;2022-09-27T06:16:03;9.90;99.90
9845;DHT22;4961;50.782;6.080;2022-09-27T06:18:32;9.90;99.90
9845;DHT22;4961;50.782;6.080;2022-09-27T06:21:00;9.90;99.90
9845;DHT22;4961;50.782;6.080;2022-09-27T06:23:29;9.90;99.90
9845;DHT22;4961;50.782;6.080;2022-09-27T06:26:02;10.00;99.90
9845;DHT22;4961;50.782;6.080;2022-09-27T06:28:31;9.90;99.90
9845;DHT22;4961;50.782;6.080;2022-09-27T06:31:00;10.00;99.90
9845;DHT22;4961;50.782;6.080;2022-09-27T06:33:29;10.00;99.90
9845;DHT22;4961;50.782;6.080;2022-09-27T06:36:00;10.00;99.90
9845;DHT22;4961;50.782;6.080;2022-09-27T06:38:29;10.00;99.90
9845;DHT22;4961;50.782;6.080;2022-09-27T06:41:02;10.00;99.90
9845;DHT22;4961;50.782;6.080;2022-09-27T06:43:30;10.00;99.90
9845;DHT22;4961;50.782;6.080;2022-09-27T06:46:00;10.10;99.90
9845;DHT22;4961;50.782;6.080;2022-09-27T06:48:32;10.10;99.90
9845;DHT22;4961;50.782;6.080;2022-09-27T06:51:03;10.10;99.90
9845;DHT22;4961;50.782;6.080;2022-09-27T06:53:32;10.20;99.90
9845;DHT22;4961;50.782;6.080;2022-09-27T06:56:02;10.10;99.90
9845;DHT22;4961;50.782;6.080;2022-09-27T06:58:30;10.20;99.90
9845;DHT22;4961;50.782;6.080;2022-09-27T07:01:16;10.30;99.90
9845;DHT22;4961;50.782;6.080;2022-09-27T07:03:48;10.30;99.90
9845;DHT22;4961;50.782;6.080;2022-09-27T07:06:18;10.30;99.90
9845;DHT22;4961;50.782;6.080;2022-09-27T07:08:49;10.30;99.90
9845;DHT22;4961;50.782;6.080;2022-09-27T07:11:20;10.30;99.90
9845;DHT22;4961;50.782;6.080;2022-09-27T07:13:49;10.30;99.90
9845;DHT22;4961;50.782;6.080;2022-09-27T07:16:18;10.30;99.90
9845;DHT22;4961;50.782;6.080;2022-09-27T07:18:48;10.30;99.90
9845;DHT22;4961;50.782;6.080;2022-09-27T07:21:16;10.30;99.90
9845;DHT22;4961;50.782;6.080;2022-09-27T07:23:45;10.30;99.90
9845;DHT22;4961;50.782;6.080;2022-09-27T07:26:13;10.40;99.90
9845;DHT22;4961;50.782;6.080;2022-09-27T07:28:43;10.40;99.90
9845;DHT22;4961;50.782;6.080;2022-09-27T07:31:12;10.30;99.90
9845;DHT22;4961;50.782;6.080;2022-09-27T07:33:40;10.30;99.90
9845;DHT22;4961;50.782;6.080;2022-09-27T07:36:11;10.30;99.90
9845;DHT22;4961;50.782;6.080;2022-09-27T07:38:40;10.30;99.90
9845;DHT22;4961;50.782;6.080;2022-09-27T07:41:10;10.30;99.90
9845;DHT22;4961;50.782;6.080;2022-09-27T07:43:41;10.40;99.90
9845;DHT22;4961;50.782;6.080;2022-09-27T07:46:10;10.50;99.90
9845;DHT22;4961;50.782;6.080;2022-09-27T07:48:39;10.50;99.90
9845;DHT22;4961;50.782;6.080;2022-09-27T07:51:07;10.60;99.90
9845;DHT22;4961;50.782;6.080;2022-09-27T07:53:38;10.60;99.90
9845;DHT22;4961;50.782;6.080;2022-09-27T07:56:06;10.60;99.90
9845;DHT22;4961;50.782;6.080;2022-09-27T07:58:35;10.60;99.90
9845;DHT22;4961;50.782;6.080;2022-09-27T08:01:05;10.70;99.90
9845;DHT22;4961;50.782;6.080;2022-09-27T08:03:33;10.70;99.90
9845;DHT22;4961;50.782;6.080;2022-09-27T08:06:02;10.80;99.90
9845;DHT22;4961;50.782;6.080;2022-09-27T08:08:31;10.80;99.90
9845;DHT22;4961;50.782;6.080;2022-09-27T08:10:59;10.90;99.90
9845;DHT22;4961;50.782;6.080;2022-09-27T08:13:28;10.90;99.90
9845;DHT22;4961;50.782;6.080;2022-09-27T08:16:02;10.90;99.90
9845;DHT22;4961;50.782;6.080;2022-09-27T08:18:40;11.00;99.90
9845;DHT22;4961;50.782;6.080;2022-09-27T08:21:11;11.10;99.90
9845;DHT22;4961;50.782;6.080;2022-09-27T08:23:39;11.20;99.90
9845;DHT22;4961;50.782;6.080;2022-09-27T08:26:09;11.30;99.90
9845;DHT22;4961;50.782;6.080;2022-09-27T08:28:37;11.30;99.90
9845;DHT22;4961;50.782;6.080;2022-09-27T08:31:05;11.40;99.90
9845;DHT22;4961;50.782;6.080;2022-09-27T08:33:34;11.40;99.90
9845;DHT22;4961;50.782;6.080;2022-09-27T08:36:11;11.40;99.90
9845;DHT22;4961;50.782;6.080;2022-09-27T08:38:40;11.40;99.90
9845;DHT22;4961;50.782;6.080;2022-09-27T08:41:26;11.40;99.90
9845;DHT22;4961;50.782;6.080;2022-09-27T08:44:12;11.30;99.90
9845;DHT22;4961;50.782;6.080;2022-09-27T08:46:51;11.30;99.90
9845;DHT22;4961;50.782;6.080;2022-09-27T08:49:25;11.20;99.90
9845;DHT22;4961;50.782;6.080;2022-09-27T08:51:55;11.00;99.90
9845;DHT22;4961;50.782;6.080;2022-09-27T08:54:27;11.00;99.90
9845;DHT22;4961;50.782;6.080;2022-09-27T08:56:59;11.00;99.90
9845;DHT22;4961;50.782;6.080;2022-09-27T08:59:33;11.00;99.90
9845;DHT22;4961;50.782;6.080;2022-09-27T09:02:04;11.00;99.90
9845;DHT22;4961;50.782;6.080;2022-09-27T09:04:38;11.00;99.90
9845;DHT22;4961;50.782;6.080;2022-09-27T09:07:19;11.00;99.90
9845;DHT22;4961;50.782;6.080;2022-09-27T09:09:54;11.10;99.90
9845;DHT22;4961;50.782;6.080;2022-09-27T09:12:36;11.10;99.90
9845;DHT22;4961;50.782;6.080;2022-09-27T09:15:21;11.10;99.90
9845;DHT22;4961;50.782;6.080;2022-09-27T09:18:06;11.10;99.90
9845;DHT22;4961;50.782;6.080;2022-09-27T09:20:53;11.10;99.90
9845;DHT22;4961;50.782;6.080;2022-09-27T09:23:41;11.10;99.90
9845;DHT22;4961;50.782;6.080;2022-09-27T09:26:21;11.10;99.90
9845;DHT22;4961;50.782;6.080;2022-09-27T09:29:03;11.00;99.90
9845;DHT22;4961;50.782;6.080;2022-09-27T09:31:40;11.10;99.90
9845;DHT22;4961;50.782;6.080;2022-09-27T09:34:16;11.10;99.90
9845;DHT22;4961;50.782;6.080;2022-09-27T09:36:49;11.10;99.90
9845;DHT22;4961;50.782;6.080;2022-09-27T09:39:24;10.90;99.90
9845;DHT22;4961;50.782;6.080;2022-09-27T09:42:05;10.90;99.90
9845;DHT22;4961;50.782;6.080;2022-09-27T09:44:43;10.90;99.90
9845;DHT22;4961;50.782;6.080;2022-09-27T09:47:24;10.90;99.90
9845;DHT22;4961;50.782;6.080;2022-09-27T09:49:57;10.90;99.90
9845;DHT22;4961;50.782;6.080;2022-09-27T09:52:37;10.90;99.90
9845;DHT22;4961;50.782;6.080;2022-09-27T09:55:16;10.80;99.90
9845;DHT22;4961;50.782;6.080;2022-09-27T09:57:58;10.80;99.90
9845;DHT22;4961;50.782;6.080;2022-09-27T10:00:28;10.70;99.90
9845;DHT22;4961;50.782;6.080;2022-09-27T10:02:58;10.70;99.90
9845;DHT22;4961;50.782;6.080;2022-09-27T10:05:27;10.80;99.90
9845;DHT22;4961;50.782;6.080;2022-09-27T10:07:57;10.90;99.90
9845;DHT22;4961;50.782;6.080;2022-09-27T10:10:28;11.00;99.90
9845;DHT22;4961;50.782;6.080;2022-09-27T10:12:57;11.00;99.90
9845;DHT22;4961;50.782;6.080;2022-09-27T10:15:28;11.00;99.90
9845;DHT22;4961;50.782;6.080;2022-09-27T10:17:59;11.00;99.90
9845;DHT22;4961;50.782;6.080;2022-09-27T10:20:30;11.00;99.90
9845;DHT22;4961;50.782;6.080;2022-09-27T10:23:04;11.00;99.90
9845;DHT22;4961;50.782;6.080;2022-09-27T10:25:51;11.10;99.90
9845;DHT22;4961;50.782;6.080;2022-09-27T10:28:32;11.30;99.90
9845;DHT22;4961;50.782;6.080;2022-09-27T10:31:05;11.30;99.90
9845;DHT22;4961;50.782;6.080;2022-09-27T10:33:36;11.40;99.90
9845;DHT22;4961;50.782;6.080;2022-09-27T10:36:22;11.40;99.90
9845;DHT22;4961;50.782;6.080;2022-09-27T10:38:52;11.30;99.90
9845;DHT22;4961;50.782;6.080;2022-09-27T10:41:27;11.30;99.90
9845;DHT22;4961;50.782;6.080;2022-09-27T10:44:19;11.20;99.90
9845;DHT22;4961;50.782;6.080;2022-09-27T10:46:49;11.30;99.90
9845;DHT22;4961;50.782;6.080;2022-09-27T10:49:21;11.30;99.90
9845;DHT22;4961;50.782;6.080;2022-09-27T10:51:53;11.30;99.90
9845;DHT22;4961;50.782;6.080;2022-09-27T10:54:23;11.30;99.90
9845;DHT22;4961;50.782;6.080;2022-09-27T10:56:57;11.40;99.90
9845;DHT22;4961;50.782;6.080;2022-09-27T10:59:27;11.50;99.90
9845;DHT22;4961;50.782;6.080;2022-09-27T11:01:57;11.50;99.90
9845;DHT22;4961;50.782;6.080;2022-09-27T11:04:29;11.50;99.90
9845;DHT22;4961;50.782;6.080;2022-09-27T11:07:22;11.50;99.90
9845;DHT22;4961;50.782;6.080;2022-09-27T11:09:52;11.40;99.90
9845;DHT22;4961;50.782;6.080;2022-09-27T11:12:22;11.30;99.90
9845;DHT22;4961;50.782;6.080;2022-09-27T11:14:55;11.20;99.90
9845;DHT22;4961;50.782;6.080;2022-09-27T11:17:32;11.20;99.90
9845;DHT22;4961;50.782;6.080;2022-09-27T11:20:16;11.30;99.90
9845;DHT22;4961;50.782;6.080;2022-09-27T11:25:57;11.20;99.90
9845;DHT22;4961;50.782;6.080;2022-09-27T11:28:38;11.20;99.90
9845;DHT22;4961;50.782;6.080;2022-09-27T11:31:15;11.20;99.90
9845;DHT22;4961;50.782;6.080;2022-09-27T11:34:03;11.30;99.90
9845;DHT22;4961;50.782;6.080;2022-09-27T11:36:46;11.40;99.90
9845;DHT22;4961;50.782;6.080;2022-09-27T11:39:25;11.40;99.90
9845;DHT22;4961;50.782;6.080;2022-09-27T11:42:09;11.50;99.90
9845;DHT22;4961;50.782;6.080;2022-09-27T11:44:53;11.60;99.90
9845;DHT22;4961;50.782;6.080;2022-09-27T11:47:50;11.80;99.90
9845;DHT22;4961;50.782;6.080;2022-09-27T11:54:05;12.10;99.90
9845;DHT22;4961;50.782;6.080;2022-09-27T11:56:52;12.10;99.90
9845;DHT22;4961;50.782;6.080;2022-09-27T11:59:40;12.20;99.90
9845;DHT22;4961;50.782;6.080;2022-09-27T12:02:29;12.20;99.90
9845;DHT22;4961;50.782;6.080;2022-09-27T12:05:14;12.10;99.90
9845;DHT22;4961;50.782;6.080;2022-09-27T12:07:53;11.90;99.90
9845;DHT22;4961;50.782;6.080;2022-09-27T12:10:23;11.80;99.90
9845;DHT22;4961;50.782;6.080;2022-09-27T12:12:54;11.70;99.90
9845;DHT22;4961;50.782;6.080;2022-09-27T12:15:25;11.70;99.90
9845;DHT22;4961;50.782;6.080;2022-09-27T12:18:03;11.60;99.90
9845;DHT22;4961;50.782;6.080;2022-09-27T12:20:36;11.60;99.90
9845;DHT22;4961;50.782;6.080;2022-09-27T12:23:10;11.70;99.90
9845;DHT22;4961;50.782;6.080;2022-09-27T12:25:40;11.60;99.90
9845;DHT22;4961;50.782;6.080;2022-09-27T12:28:17;11.60;99.90
9845;DHT22;4961;50.782;6.080;2022-09-27T12:30:57;11.50;99.90
9845;DHT22;4961;50.782;6.080;2022-09-27T12:33:53;11.50;99.90
9845;DHT22;4961;50.782;6.080;2022-09-27T12:36:29;11.60;99.90
9845;DHT22;4961;50.782;6.080;2022-09-27T12:39:08;11.70;99.90
9845;DHT22;4961;50.782;6.080;2022-09-27T12:41:44;11.70;99.90
9845;DHT22;4961;50.782;6.080;2022-09-27T12:44:15;11.70;99.90
9845;DHT22;4961;50.782;6.080;2022-09-27T12:46:52;11.60;99.90
9845;DHT22;4961;50.782;6.080;2022-09-27T12:49:30;11.50;99.90
9845;DHT22;4961;50.782;6.080;2022-09-27T12:52:08;11.50;99.90
9845;DHT22;4961;50.782;6.080;2022-09-27T12:55:14;11.40;99.90
9845;DHT22;4961;50.782;6.080;2022-09-27T12:57:56;11.40;99.90
9845;DHT22;4961;50.782;6.080;2022-09-27T13:00:30;11.30;99.90
9845;DHT22;4961;50.782;6.080;2022-09-27T13:03:25;11.40;99.90
9845;DHT22;4961;50.782;6.080;2022-09-27T13:09:21;11.70;99.90
9845;DHT22;4961;50.782;6.080;2022-09-27T13:12:01;11.90;99.90
9845;DHT22;4961;50.782;6.080;2022-09-27T13:14:41;12.00;99.90
9845;DHT22;4961;50.782;6.080;2022-09-27T13:17:33;12.00;99.90
9845;DHT22;4961;50.782;6.080;2022-09-27T13:26:51;12.30;99.90
9845;DHT22;4961;50.782;6.080;2022-09-27T13:29:29;12.50;99.90
9845;DHT22;4961;50.782;6.080;2022-09-27T13:32:13;12.50;99.90
9845;DHT22;4961;50.782;6.080;2022-09-27T13:34:43;12.60;99.90
9845;DHT22;4961;50.782;6.080;2022-09-27T13:37:46;12.50;99.90
9845;DHT22;4961;50.782;6.080;2022-09-27T13:40:28;12.50;99.90
9845;DHT22;4961;50.782;6.080;2022-09-27T13:43:24;12.40;99.90
9845;DHT22;4961;50.782;6.080;2022-09-27T13:45:56;12.40;99.90
9845;DHT22;4961;50.782;6.080;2022-09-27T13:48:29;12.40;99.90
9845;DHT22;4961;50.782;6.080;2022-09-27T13:51:02;12.30;99.90
9845;DHT22;4961;50.782;6.080;2022-09-27T13:53:33;12.30;99.90
9845;DHT22;4961;50.782;6.080;2022-09-27T13:56:03;12.20;99.90
9845;DHT22;4961;50.782;6.080;2022-09-27T13:58:49;12.20;99.90
9845;DHT22;4961;50.782;6.080;2022-09-27T14:01:25;12.10;99.90
9845;DHT22;4961;50.782;6.080;2022-09-27T14:03:59;11.80;99.90
9845;DHT22;4961;50.782;6.080;2022-09-27T14:06:31;11.50;99.90
9845;DHT22;4961;50.782;6.080;2022-09-27T14:09:03;11.20;99.90
9845;DHT22;4961;50.782;6.080;2022-09-27T14:11:36;10.90;99.90
9845;DHT22;4961;50.782;6.080;2022-09-27T14:14:13;10.80;99.90
9845;DHT22;4961;50.782;6.080;2022-09-27T14:16:44;10.70;99.90
9845;DHT22;4961;50.782;6.080;2022-09-27T14:19:15;10.70;99.90
9845;DHT22;4961;50.782;6.080;2022-09-27T14:21:45;10.60;99.90
9845;DHT22;4961;50.782;6.080;2022-09-27T14:24:25;10.50;99.90
9845;DHT22;4961;50.782;6.080;2022-09-27T14:27:08;10.50;99.90
9845;DHT22;4961;50.782;6.080;2022-09-27T14:29:41;10.50;99.90
9845;DHT22;4961;50.782;6.080;2022-09-27T14:32:12;10.50;99.90
9845;DHT22;4961;50.782;6.080;2022-09-27T14:34:40;10.60;99.90
9845;DHT22;4961;50.782;6.080;2022-09-27T14:37:19;10.70;99.90
9845;DHT22;4961;50.782;6.080;2022-09-27T14:39:55;10.80;99.90
9845;DHT22;4961;50.782;6.080;2022-09-27T14:42:26;10.90;99.90
9845;DHT22;4961;50.782;6.080;2022-09-27T14:45:00;10.90;99.90
9845;DHT22;4961;50.782;6.080;2022-09-27T14:47:29;10.90;99.90
9845;DHT22;4961;50.782;6.080;2022-09-27T14:49:58;10.90;99.90
9845;DHT22;4961;50.782;6.080;2022-09-27T14:52:28;10.90;99.90
9845;DHT22;4961;50.782;6.080;2022-09-27T14:55:00;10.90;99.90
9845;DHT22;4961;50.782;6.080;2022-09-27T14:57:33;10.90;99.90
9845;DHT22;4961;50.782;6.080;2022-09-27T15:00:36;11.00;99.90
9845;DHT22;4961;50.782;6.080;2022-09-27T15:03:07;11.10;99.90
9845;DHT22;4961;50.782;6.080;2022-09-27T15:05:41;11.20;99.90
9845;DHT22;4961;50.782;6.080;2022-09-27T15:08:10;11.20;99.90
9845;DHT22;4961;50.782;6.080;2022-09-27T15:10:41;11.20;99.90
9845;DHT22;4961;50.782;6.080;2022-09-27T15:13:14;11.30;99.90
9845;DHT22;4961;50.782;6.080;2022-09-27T15:15:46;11.30;99.90
9845;DHT22;4961;50.782;6.080;2022-09-27T15:18:40;11.20;99.90
9845;DHT22;4961;50.782;6.080;2022-09-27T15:21:12;11.10;99.90
9845;DHT22;4961;50.782;6.080;2022-09-27T15:23:41;11.20;99.90
9845;DHT22;4961;50.782;6.080;2022-09-27T15:26:13;11.30;99.90
9845;DHT22;4961;50.782;6.080;2022-09-27T15:28:45;11.30;99.90
9845;DHT22;4961;50.782;6.080;2022-09-27T15:31:15;11.30;99.90
9845;DHT22;4961;50.782;6.080;2022-09-27T15:33:52;11.40;99.90
9845;DHT22;4961;50.782;6.080;2022-09-27T15:36:51;11.40;99.90
9845;DHT22;4961;50.782;6.080;2022-09-27T15:39:26;11.50;99.90
9845;DHT22;4961;50.782;6.080;2022-09-27T15:42:13;11.50;99.90
9845;DHT22;4961;50.782;6.080;2022-09-27T15:44:45;11.60;99.90
9845;DHT22;4961;50.782;6.080;2022-09-27T15:47:47;11.60;99.90
9845;DHT22;4961;50.782;6.080;2022-09-27T15:50:36;11.60;99.90
9845;DHT22;4961;50.782;6.080;2022-09-27T15:53:05;11.60;99.90
9845;DHT22;4961;50.782;6.080;2022-09-27T15:55:41;11.50;99.90
9845;DHT22;4961;50.782;6.080;2022-09-27T15:58:13;11.60;99.90
9845;DHT22;4961;50.782;6.080;2022-09-27T16:00:53;11.50;99.90
9845;DHT22;4961;50.782;6.080;2022-09-27T16:03:24;11.50;99.90
9845;DHT22;4961;50.782;6.080;2022-09-27T16:05:54;11.60;99.90
9845;DHT22;4961;50.782;6.080;2022-09-27T16:08:25;11.60;99.90
9845;DHT22;4961;50.782;6.080;2022-09-27T16:10:55;11.60;99.90
9845;DHT22;4961;50.782;6.080;2022-09-27T16:13:24;11.50;99.90
9845;DHT22;4961;50.782;6.080;2022-09-27T16:16:00;11.60;99.90
9845;DHT22;4961;50.782;6.080;2022-09-27T16:18:30;11.60;99.90
9845;DHT22;4961;50.782;6.080;2022-09-27T16:21:00;11.60;99.90
9845;DHT22;4961;50.782;6.080;2022-09-27T16:23:28;11.60;99.90
9845;DHT22;4961;50.782;6.080;2022-09-27T16:25:56;11.60;99.90
9845;DHT22;4961;50.782;6.080;2022-09-27T16:28:25;11.70;99.90
9845;DHT22;4961;50.782;6.080;2022-09-27T16:30:53;11.60;99.90
9845;DHT22;4961;50.782;6.080;2022-09-27T16:33:22;11.60;99.90
9845;DHT22;4961;50.782;6.080;2022-09-27T16:35:51;11.60;99.90
9845;DHT22;4961;50.782;6.080;2022-09-27T16:38:20;11.60;99.90
9845;DHT22;4961;50.782;6.080;2022-09-27T16:40:49;11.60;99.90
9845;DHT22;4961;50.782;6.080;2022-09-27T16:43:18;11.60;99.90
9845;DHT22;4961;50.782;6.080;2022-09-27T16:45:47;11.70;99.90
9845;DHT22;4961;50.782;6.080;2022-09-27T16:48:15;11.60;99.90
9845;DHT22;4961;50.782;6.080;2022-09-27T16:50:43;11.60;99.90
9845;DHT22;4961;50.782;6.080;2022-09-27T16:53:30;11.60;99.90
9845;DHT22;4961;50.782;6.080;2022-09-27T16:55:59;11.50;99.90
9845;DHT22;4961;50.782;6.080;2022-09-27T16:58:28;11.50;99.90
9845;DHT22;4961;50.782;6.080;2022-09-27T17:00:57;11.40;99.90
9845;DHT22;4961;50.782;6.080;2022-09-27T17:03:25;11.40;99.90